createdAt,value
2023-08-27T00:02:08.763Z,99737.16
2023-08-27T00:05:10.730Z,99738.00
2023-08-27T00:08:12.590Z,99740.00
2023-08-27T00:11:14.339Z,99745.50
2023-08-27T00:14:16.041Z,99752.97
2023-08-27T00:17:17.709Z,99746.88
2023-08-27T00:20:19.578Z,99754.06
2023-08-27T00:23:21.327Z,99746.34
2023-08-27T00:26:23.043Z,99745.81
2023-08-27T00:29:24.797Z,99740.56
2023-08-27T00:32:28.093Z,99739.75
2023-08-27T00:35:29.804Z,99736.16
2023-08-27T00:38:31.769Z,99744.44
2023-08-27T00:41:33.473Z,99744.16
2023-08-27T00:44:35.116Z,99735.03
2023-08-27T00:47:38.669Z,99737.25
2023-08-27T00:50:40.548Z,99733.09
2023-08-27T00:53:42.371Z,99732.28
2023-08-27T00:56:45.673Z,99729.78
2023-08-27T00:59:48.070Z,99726.72
2023-08-27T01:02:50.292Z,99717.63
2023-08-27T01:05:53.063Z,99717.38
2023-08-27T01:09:23.996Z,99724.28
2023-08-27T01:12:36.676Z,99721.53
2023-08-27T01:15:38.712Z,99714.62
2023-08-27T01:18:41.063Z,99707.75
2023-08-27T01:21:43.331Z,99715.78
2023-08-27T01:24:45.034Z,99745.00
2023-08-27T01:28:07.302Z,99735.13
2023-08-27T01:31:16.022Z,99744.50
2023-08-27T01:34:19.491Z,99728.78
2023-08-27T01:37:22.012Z,99739.50
2023-08-27T01:40:26.457Z,99735.94
2023-08-27T01:43:28.170Z,99722.41
2023-08-27T01:46:29.798Z,99723.28
2023-08-27T01:49:31.608Z,99733.47
2023-08-27T01:52:33.744Z,99731.00
2023-08-27T01:55:35.532Z,99734.84
2023-08-27T01:58:37.270Z,99732.66
2023-08-27T02:01:39.112Z,99726.28
2023-08-27T02:04:41.151Z,99728.50
2023-08-27T02:07:42.889Z,99737.56
2023-08-27T02:10:44.805Z,99739.78
2023-08-27T02:13:46.499Z,99739.22
2023-08-27T02:16:48.823Z,99736.72
2023-08-27T02:19:50.916Z,99728.47
2023-08-27T02:22:52.614Z,99735.31
2023-08-27T02:25:54.578Z,99735.88
2023-08-27T02:28:56.213Z,99739.44
2023-08-27T02:31:57.939Z,99738.34
2023-08-27T02:34:59.662Z,99740.78
2023-08-27T02:38:01.366Z,99738.03
2023-08-27T02:41:03.354Z,99725.59
2023-08-27T02:44:05.242Z,99725.38
2023-08-27T02:47:07.293Z,99726.75
2023-08-27T02:50:09.432Z,99725.91
2023-08-27T02:53:11.687Z,99729.78
2023-08-27T02:56:13.370Z,99738.09
2023-08-27T02:59:15.363Z,99734.50
2023-08-27T03:02:16.974Z,99737.53
2023-08-27T03:05:19.928Z,99733.41
2023-08-27T03:08:21.682Z,99735.00
2023-08-27T03:11:23.397Z,99731.12
2023-08-27T03:14:25.098Z,99731.91
2023-08-27T03:17:26.890Z,99728.31
2023-08-27T03:20:28.538Z,99730.75
2023-08-27T03:23:30.191Z,99735.44
2023-08-27T03:26:31.870Z,99740.38
2023-08-27T03:29:33.697Z,99738.97
2023-08-27T03:32:36.217Z,99740.34
2023-08-27T03:35:38.001Z,99740.28
2023-08-27T03:38:39.647Z,99751.19
2023-08-27T03:41:41.302Z,99771.28
2023-08-27T03:44:42.887Z,99766.47
2023-08-27T03:47:44.957Z,99766.72
2023-08-27T03:50:46.736Z,99771.66
2023-08-27T03:53:48.392Z,99767.81
2023-08-27T03:56:50.126Z,99773.25
2023-08-27T03:59:52.007Z,99770.97
2023-08-27T04:02:53.729Z,99775.91
2023-08-27T04:05:55.440Z,99773.16
2023-08-27T04:08:57.839Z,99779.22
2023-08-27T04:11:59.618Z,99779.75
2023-08-27T04:15:01.343Z,99786.34
2023-08-27T04:18:03.319Z,99797.34
2023-08-27T04:21:05.571Z,99790.47
2023-08-27T04:24:07.751Z,99795.34
2023-08-27T04:27:09.553Z,99797.28
2023-08-27T04:30:12.383Z,99793.44
2023-08-27T04:33:14.114Z,99796.66
2023-08-27T04:36:15.902Z,99798.31
2023-08-27T04:39:17.608Z,99793.97
2023-08-27T04:42:19.653Z,99792.59
2023-08-27T04:45:21.325Z,99794.81
2023-08-27T04:48:23.063Z,99800.09
2023-08-27T04:51:26.407Z,99801.22
2023-08-27T04:54:28.363Z,99794.66
2023-08-27T04:57:30.052Z,99789.47
2023-08-27T05:00:32.837Z,99791.41
2023-08-27T05:03:34.538Z,99795.31
2023-08-27T05:06:36.638Z,99787.91
2023-08-27T05:09:38.524Z,99794.00
2023-08-27T05:12:40.360Z,99802.31
2023-08-27T05:15:42.027Z,99801.22
2023-08-27T05:18:44.064Z,99807.59
2023-08-27T05:21:46.142Z,99815.63
2023-08-27T05:24:47.929Z,99812.09
2023-08-27T05:27:49.626Z,99820.69
2023-08-27T05:30:51.360Z,99817.13
2023-08-27T05:33:53.126Z,99812.72
2023-08-27T05:36:54.996Z,99811.91
2023-08-27T05:39:57.031Z,99805.06
2023-08-27T05:42:58.990Z,99794.34
2023-08-27T05:46:00.702Z,99785.28
2023-08-27T05:49:02.763Z,99781.16
2023-08-27T05:52:04.704Z,99790.78
2023-08-27T05:55:06.540Z,99788.63
2023-08-27T05:58:08.195Z,99795.56
2023-08-27T06:01:10.036Z,99795.56
2023-08-27T06:04:11.908Z,99810.78
2023-08-27T06:07:13.566Z,99801.38
2023-08-27T06:10:15.772Z,99805.03
2023-08-27T06:13:17.797Z,99803.63
2023-08-27T06:16:19.796Z,99798.72
2023-08-27T06:19:21.529Z,99801.50
2023-08-27T06:22:23.296Z,99783.06
2023-08-27T06:25:24.962Z,99782.78
2023-08-27T06:28:26.564Z,99780.00
2023-08-27T06:31:28.566Z,99780.28
2023-08-27T06:34:30.270Z,99778.66
2023-08-27T06:37:32.525Z,99788.06
2023-08-27T06:40:34.187Z,99783.09
2023-08-27T06:43:36.136Z,99789.44
2023-08-27T06:46:37.815Z,99779.78
2023-08-27T06:49:40.231Z,99778.13
2023-08-27T06:52:41.910Z,99781.16
2023-08-27T06:55:43.648Z,99786.97
2023-08-27T06:58:45.369Z,99780.91
2023-08-27T07:01:47.183Z,99770.13
2023-08-27T07:04:49.052Z,99780.03
2023-08-27T07:07:50.982Z,99775.06
2023-08-27T07:10:52.645Z,99777.56
2023-08-27T07:13:54.801Z,99777.75
2023-08-27T07:16:56.715Z,99781.03
2023-08-27T07:19:58.463Z,99784.00
2023-08-27T07:23:00.180Z,99794.47
2023-08-27T07:26:02.308Z,99782.31
2023-08-27T07:29:04.039Z,99782.25
2023-08-27T07:32:05.824Z,99781.69
2023-08-27T07:35:07.910Z,99782.88
2023-08-27T07:38:10.009Z,99777.81
2023-08-27T07:41:13.258Z,99779.28
2023-08-27T07:44:14.932Z,99777.09
2023-08-27T07:47:16.927Z,99771.69
2023-08-27T07:50:18.666Z,99762.06
2023-08-27T07:53:20.471Z,99760.62
2023-08-27T07:56:22.158Z,99754.66
2023-08-27T07:59:24.178Z,99745.56
2023-08-27T08:02:25.974Z,99736.44
2023-08-27T08:05:27.776Z,99738.25
2023-08-27T08:08:29.855Z,99739.03
2023-08-27T08:11:31.912Z,99735.91
2023-08-27T08:14:33.761Z,99734.50
2023-08-27T08:17:44.873Z,99737.81
2023-08-27T08:20:48.728Z,99742.44
2023-08-27T08:23:50.756Z,99744.38
2023-08-27T08:26:52.418Z,99746.03
2023-08-27T08:29:54.868Z,99731.22
2023-08-27T08:32:56.673Z,99726.19
2023-08-27T08:35:58.430Z,99722.19
2023-08-27T08:39:00.271Z,99734.22
2023-08-27T08:42:16.575Z,99727.69
2023-08-27T08:45:27.344Z,99725.22
2023-08-27T08:48:32.678Z,99731.75
2023-08-27T08:51:34.591Z,99726.25
2023-08-27T08:54:40.768Z,99731.22
2023-08-27T08:57:50.717Z,99741.75
2023-08-27T09:00:52.622Z,99734.53
2023-08-27T09:03:56.368Z,99729.03
2023-08-27T09:06:58.593Z,99730.19
2023-08-27T09:10:03.067Z,99728.16
2023-08-27T09:13:06.035Z,99722.25
2023-08-27T09:16:07.853Z,99734.69
2023-08-27T09:19:10.222Z,99726.94
2023-08-27T09:22:12.140Z,99718.75
2023-08-27T09:25:14.506Z,99723.12
2023-08-27T09:28:18.066Z,99723.03
2023-08-27T09:31:38.982Z,99714.72
2023-08-27T09:34:40.675Z,99704.97
2023-08-27T09:37:44.277Z,99715.66
2023-08-27T09:40:46.183Z,99705.16
2023-08-27T09:43:52.669Z,99701.38
2023-08-27T09:47:04.791Z,99695.94
2023-08-27T09:50:08.661Z,99684.72
2023-08-27T09:53:15.888Z,99698.94
2023-08-27T09:56:17.546Z,99694.16
2023-08-27T09:59:20.014Z,99694.66
2023-08-27T10:02:21.729Z,99704.28
2023-08-27T10:05:42.502Z,99701.13
2023-08-27T10:08:50.719Z,99703.03
2023-08-27T10:11:53.141Z,99701.31
2023-08-27T10:14:55.595Z,99702.03
2023-08-27T10:17:59.564Z,99693.97
2023-08-27T10:21:01.868Z,99695.66
2023-08-27T10:24:06.429Z,99685.81
2023-08-27T10:27:08.374Z,99679.63
2023-08-27T10:30:24.360Z,99677.19
2023-08-27T10:33:27.963Z,99670.44
2023-08-27T10:36:36.449Z,99666.00
2023-08-27T10:39:39.504Z,99658.69
2023-08-27T10:42:41.596Z,99664.00
2023-08-27T10:45:43.343Z,99660.88
2023-08-27T10:48:54.076Z,99657.97
2023-08-27T10:51:56.911Z,99653.88
2023-08-27T10:55:01.655Z,99646.50
2023-08-27T10:58:23.315Z,99647.38
2023-08-27T11:01:25.601Z,99632.31
2023-08-27T11:04:38.322Z,99637.41
2023-08-27T11:07:42.031Z,99628.50
2023-08-27T11:10:43.771Z,99618.19
2023-08-27T11:13:45.563Z,99621.31
2023-08-27T11:17:06.113Z,99626.25
2023-08-27T11:20:22.258Z,99626.34
2023-08-27T11:23:23.962Z,99626.72
2023-08-27T11:26:28.557Z,99626.91
2023-08-27T11:29:30.883Z,99625.78
2023-08-27T11:32:32.695Z,99629.44
2023-08-27T11:35:37.494Z,99626.38
2023-08-27T11:38:39.166Z,99628.44
2023-08-27T11:41:42.662Z,99626.47
2023-08-27T11:44:50.103Z,99613.28
2023-08-27T11:47:51.854Z,99610.91
2023-08-27T11:50:53.592Z,99615.38
2023-08-27T11:53:55.503Z,99615.62
2023-08-27T11:56:58.430Z,99611.31
2023-08-27T12:00:00.080Z,99609.59
2023-08-27T12:03:02.014Z,99605.56
2023-08-27T12:06:03.795Z,99604.44
2023-08-27T12:09:05.458Z,99602.84
2023-08-27T12:12:08.583Z,99592.22
2023-08-27T12:15:10.821Z,99596.34
2023-08-27T12:18:12.538Z,99591.38
2023-08-27T12:21:15.113Z,99590.09
2023-08-27T12:24:29.173Z,99582.94
2023-08-27T12:27:31.078Z,99585.31
2023-08-27T12:30:35.922Z,99578.72
2023-08-27T12:33:38.980Z,99583.53
2023-08-27T12:36:40.635Z,99588.16
2023-08-27T12:39:43.520Z,99584.50
2023-08-27T12:42:45.216Z,99577.50
2023-08-27T12:45:47.035Z,99573.53
2023-08-27T12:48:49.004Z,99574.69
2023-08-27T12:51:50.793Z,99567.37
2023-08-27T12:54:52.633Z,99559.87
2023-08-27T12:57:54.676Z,99559.56
2023-08-27T13:00:56.693Z,99557.16
2023-08-27T13:03:58.880Z,99566.87
2023-08-27T13:07:00.644Z,99558.13
2023-08-27T13:10:02.459Z,99545.31
2023-08-27T13:13:04.296Z,99555.34
2023-08-27T13:16:06.073Z,99542.06
2023-08-27T13:19:08.214Z,99541.00
2023-08-27T13:22:10.058Z,99549.63
2023-08-27T13:25:12.022Z,99536.44
2023-08-27T13:28:13.987Z,99532.44
2023-08-27T13:31:16.548Z,99526.44
2023-08-27T13:34:18.323Z,99527.94
2023-08-27T13:37:20.007Z,99521.50
2023-08-27T13:40:21.756Z,99523.63
2023-08-27T13:43:23.519Z,99518.78
2023-08-27T13:46:25.337Z,99515.47
2023-08-27T13:49:27.020Z,99517.25
2023-08-27T13:52:28.997Z,99509.59
2023-08-27T13:55:31.171Z,99506.22
2023-08-27T13:58:34.275Z,99508.78
2023-08-27T14:01:36.561Z,99506.78
2023-08-27T14:04:38.310Z,99505.41
2023-08-27T14:07:39.954Z,99489.16
2023-08-27T14:10:41.625Z,99495.56
2023-08-27T14:13:43.322Z,99494.31
2023-08-27T14:16:45.599Z,99494.31
2023-08-27T14:19:48.018Z,99487.09
2023-08-27T14:22:49.682Z,99489.16
2023-08-27T14:25:51.513Z,99490.09
2023-08-27T14:28:53.351Z,99492.88
2023-08-27T14:31:55.018Z,99485.69
2023-08-27T14:34:56.769Z,99477.16
2023-08-27T14:37:58.602Z,99466.22
2023-08-27T14:41:00.852Z,99469.69
2023-08-27T14:44:02.940Z,99470.84
2023-08-27T14:47:05.132Z,99472.72
2023-08-27T14:50:07.674Z,99459.66
2023-08-27T14:53:09.712Z,99470.50
2023-08-27T14:56:11.727Z,99460.47
2023-08-27T14:59:31.326Z,99462.59
2023-08-27T15:02:33.053Z,99449.88
2023-08-27T15:05:35.356Z,99461.97
2023-08-27T15:08:37.845Z,99460.19
2023-08-27T15:11:39.598Z,99457.63
2023-08-27T15:14:41.262Z,99461.44
2023-08-27T15:17:43.423Z,99462.97
2023-08-27T15:20:47.228Z,99456.44
2023-08-27T15:23:49.044Z,99457.09
2023-08-27T15:26:50.677Z,99446.50
2023-08-27T15:29:55.452Z,99453.13
2023-08-27T15:32:57.566Z,99449.03
2023-08-27T15:35:59.348Z,99452.25
2023-08-27T15:39:01.097Z,99444.97
2023-08-27T15:42:03.300Z,99452.75
2023-08-27T15:45:05.770Z,99458.06
2023-08-27T15:48:07.530Z,99455.34
2023-08-27T15:51:09.355Z,99450.31
2023-08-27T15:54:11.028Z,99458.41
2023-08-27T15:57:12.755Z,99456.00
2023-08-27T16:00:14.890Z,99458.88
2023-08-27T16:03:38.071Z,99459.09
2023-08-27T16:06:39.886Z,99446.50
2023-08-27T16:09:42.031Z,99453.72
2023-08-27T16:12:43.698Z,99427.19
2023-08-27T16:15:48.256Z,99444.25
2023-08-27T16:18:53.194Z,99432.59
2023-08-27T16:21:54.902Z,99435.22
2023-08-27T16:24:56.697Z,99432.62
2023-08-27T16:27:58.916Z,99437.44
2023-08-27T16:31:02.260Z,99432.41
2023-08-27T16:34:04.211Z,99435.41
2023-08-27T16:37:05.841Z,99434.94
2023-08-27T16:40:08.408Z,99430.19
2023-08-27T16:43:10.439Z,99431.03
2023-08-27T16:46:12.246Z,99423.47
2023-08-27T16:49:14.134Z,99430.41
2023-08-27T16:52:15.962Z,99420.91
2023-08-27T16:55:17.885Z,99427.53
2023-08-27T16:58:19.562Z,99422.47
2023-08-27T17:01:24.280Z,99427.53
2023-08-27T17:04:26.592Z,99433.81
2023-08-27T17:07:28.308Z,99429.37
2023-08-27T17:10:30.290Z,99426.28
2023-08-27T17:13:31.976Z,99424.44
2023-08-27T17:16:33.758Z,99429.19
2023-08-27T17:19:35.481Z,99426.75
2023-08-27T17:22:37.614Z,99431.63
2023-08-27T17:25:39.255Z,99438.53
2023-08-27T17:28:40.899Z,99430.81
2023-08-27T17:31:42.757Z,99429.81
2023-08-27T17:34:44.453Z,99425.22
2023-08-27T17:37:57.927Z,99432.19
2023-08-27T17:40:59.693Z,99433.12
2023-08-27T17:44:01.418Z,99447.03
2023-08-27T17:47:03.897Z,99448.12
2023-08-27T17:50:06.404Z,99447.97
2023-08-27T17:53:08.375Z,99451.69
2023-08-27T17:56:10.055Z,99450.19
2023-08-27T17:59:12.077Z,99456.50
2023-08-27T18:02:13.940Z,99455.50
2023-08-27T18:05:16.275Z,99459.41
2023-08-27T18:08:18.729Z,99464.28
2023-08-27T18:11:20.445Z,99471.94
2023-08-27T18:14:22.287Z,99475.94
2023-08-27T18:17:24.106Z,99478.34
2023-08-27T18:20:25.933Z,99483.72
2023-08-27T18:23:27.651Z,99482.84
2023-08-27T18:26:29.565Z,99482.09
2023-08-27T18:29:31.358Z,99483.53
2023-08-27T18:32:33.093Z,99485.19
2023-08-27T18:35:34.855Z,99491.37
2023-08-27T18:38:36.682Z,99484.78
2023-08-27T18:41:38.783Z,99479.47
2023-08-27T18:44:40.842Z,99483.53
2023-08-27T18:47:42.617Z,99484.25
2023-08-27T18:50:44.963Z,99480.16
2023-08-27T18:54:05.919Z,99484.91
2023-08-27T18:57:07.979Z,99489.91
2023-08-27T19:00:10.083Z,99492.50
2023-08-27T19:03:12.207Z,99493.47
2023-08-27T19:06:13.948Z,99478.81
2023-08-27T19:09:15.654Z,99487.47
2023-08-27T19:12:18.005Z,99487.56
2023-08-27T19:15:19.764Z,99483.06
2023-08-27T19:18:21.518Z,99487.91
2023-08-27T19:21:23.285Z,99487.50
2023-08-27T19:24:24.993Z,99480.72
2023-08-27T19:27:26.965Z,99484.72
2023-08-27T19:30:30.880Z,99480.59
2023-08-27T19:33:32.677Z,99480.09
2023-08-27T19:36:34.526Z,99472.41
2023-08-27T19:39:36.222Z,99480.56
2023-08-27T19:42:38.692Z,99484.88
2023-08-27T19:45:40.547Z,99474.41
2023-08-27T19:48:42.875Z,99475.53
2023-08-27T19:51:44.754Z,99478.81
2023-08-27T19:54:46.722Z,99475.03
2023-08-27T19:57:48.763Z,99476.44
2023-08-27T20:00:50.569Z,99485.06
2023-08-27T20:03:52.366Z,99478.50
2023-08-27T20:06:54.154Z,99478.28
2023-08-27T20:09:57.562Z,99487.59
2023-08-27T20:12:59.645Z,99489.87
2023-08-27T20:16:02.260Z,99464.44
2023-08-27T20:19:04.000Z,99489.53
2023-08-27T20:22:06.062Z,99491.78
2023-08-27T20:25:08.199Z,99491.28
2023-08-27T20:28:10.199Z,99501.28
2023-08-27T20:31:11.962Z,99499.50
2023-08-27T20:34:14.818Z,99491.28
2023-08-27T20:37:16.617Z,99504.06
2023-08-27T20:40:18.431Z,99502.72
2023-08-27T20:43:20.674Z,99505.50
2023-08-27T20:46:22.822Z,99512.47
2023-08-27T20:49:24.567Z,99511.41
2023-08-27T20:52:26.321Z,99513.06
2023-08-27T20:55:28.042Z,99517.47
2023-08-27T20:58:29.811Z,99502.69
2023-08-27T21:01:33.544Z,99514.50
2023-08-27T21:04:35.349Z,99520.03
2023-08-27T21:07:38.905Z,99515.63
2023-08-27T21:10:40.740Z,99517.88
2023-08-27T21:13:42.397Z,99507.09
2023-08-27T21:16:44.274Z,99504.63
2023-08-27T21:19:45.978Z,99514.66
2023-08-27T21:22:47.764Z,99518.91
2023-08-27T21:25:50.038Z,99518.81
2023-08-27T21:28:51.811Z,99519.47
2023-08-27T21:31:55.106Z,99514.22
2023-08-27T21:34:57.005Z,99515.06
2023-08-27T21:37:58.683Z,99524.19
2023-08-27T21:41:00.506Z,99507.94
2023-08-27T21:44:02.192Z,99509.66
2023-08-27T21:47:04.742Z,99514.38
2023-08-27T21:50:07.146Z,99510.53
2023-08-27T21:53:09.040Z,99508.66
2023-08-27T21:56:10.728Z,99512.56
2023-08-27T21:59:12.373Z,99515.38
2023-08-27T22:02:14.875Z,99512.69
2023-08-27T22:05:17.878Z,99524.09
2023-08-27T22:08:19.530Z,99532.19
2023-08-27T22:11:21.189Z,99531.34
2023-08-27T22:14:22.884Z,99518.09
2023-08-27T22:17:25.219Z,99524.47
2023-08-27T22:20:27.002Z,99517.81
2023-08-27T22:23:28.828Z,99519.22
2023-08-27T22:26:30.533Z,99527.56
2023-08-27T22:29:32.721Z,99525.44
2023-08-27T22:32:34.827Z,99532.41
2023-08-27T22:35:36.689Z,99521.72
2023-08-27T22:38:38.351Z,99538.13
2023-08-27T22:41:40.340Z,99535.91
2023-08-27T22:44:42.044Z,99532.09
2023-08-27T22:47:43.940Z,99544.88
2023-08-27T22:50:45.966Z,99535.78
2023-08-27T22:53:48.047Z,99537.19
2023-08-27T22:56:49.841Z,99535.87
2023-08-27T22:59:51.561Z,99538.34
2023-08-27T23:02:53.351Z,99530.06
2023-08-27T23:05:55.230Z,99522.88
2023-08-27T23:08:57.766Z,99515.13
2023-08-27T23:11:59.510Z,99516.25
2023-08-27T23:15:01.178Z,99513.19
2023-08-27T23:18:03.068Z,99522.88
2023-08-27T23:21:05.130Z,99508.63
2023-08-27T23:24:06.957Z,99514.53
2023-08-27T23:27:09.300Z,99513.50
2023-08-27T23:30:11.364Z,99501.41
2023-08-27T23:33:13.030Z,99508.88
2023-08-27T23:36:14.766Z,99507.16
2023-08-27T23:39:16.414Z,99501.12
2023-08-27T23:42:18.181Z,99502.22
2023-08-27T23:45:19.924Z,99494.78
2023-08-27T23:48:21.759Z,99503.34
2023-08-27T23:51:23.703Z,99505.28
2023-08-27T23:54:25.972Z,99492.31
2023-08-27T23:57:29.173Z,99500.91
